Time;durP1;ratioP1;P1;durP2;ratioP2;P2;SDS_P1;SDS_P2;PMS_P1;PMS_P2;Temp;Humidity;BMP_temperature;BMP_pressure;BME280_temperature;BME280_humidity;BME280_pressure;Samples;Min_cycle;Max_cycle;Signal;HPM_P1;HPM_P2
2023/05/02 00:01:30;;;;;;;40.17;22.20;;;10.70;1.00;;;;;;5036528;28;20190;-50
2023/05/02 00:03:55;;;;;;;39.43;24.13;;;10.70;1.00;;;;;;5036708;28;20627;-51
2023/05/02 00:06:21;;;;;;;38.07;23.40;;;10.70;1.00;;;;;;5036061;28;20179;-50
2023/05/02 00:08:48;;;;;;;46.57;22.50;;;10.80;1.00;;;;;;5036190;28;20182;-50
2023/05/02 00:11:14;;;;;;;39.70;24.70;;;10.70;53.80;;;;;;5036519;28;20269;-50
2023/05/02 00:13:40;;;;;;;41.00;24.43;;;10.70;99.90;;;;;;5036555;28;20457;-51
2023/05/02 00:16:06;;;;;;;40.20;24.10;;;10.70;99.90;;;;;;5036186;28;20213;-50
2023/05/02 00:18:31;;;;;;;42.70;26.03;;;10.80;99.90;;;;;;5036427;28;20179;-50
2023/05/02 00:20:57;;;;;;;45.70;24.43;;;10.80;99.90;;;;;;5036135;28;20187;-50
2023/05/02 00:23:22;;;;;;;41.47;23.80;;;10.80;99.90;;;;;;5036221;28;20184;-50
2023/05/02 00:25:49;;;;;;;41.00;25.60;;;10.80;99.90;;;;;;5035959;28;20264;-50
2023/05/02 00:28:14;;;;;;;44.53;24.60;;;10.80;1.00;;;;;;5036223;28;20545;-50
2023/05/02 00:30:44;;;;;;;44.30;23.80;;;10.90;1.00;;;;;;5036206;28;20473;-51
2023/05/02 00:33:11;;;;;;;44.67;24.03;;;10.90;1.00;;;;;;5036106;28;20604;-51
2023/05/02 00:35:37;;;;;;;48.90;25.40;;;10.90;1.00;;;;;;5036043;28;20414;-50
2023/05/02 00:38:02;;;;;;;47.00;25.80;;;10.90;1.00;;;;;;5036125;28;20422;-50
2023/05/02 00:40:28;;;;;;;51.00;27.83;;;10.90;96.60;;;;;;5036068;28;20187;-50
2023/05/02 00:42:54;;;;;;;42.87;24.77;;;10.80;99.90;;;;;;5035752;28;20186;-50
2023/05/02 00:45:19;;;;;;;46.97;26.37;;;10.90;99.90;;;;;;5035782;28;20190;-50
2023/05/02 00:47:45;;;;;;;49.00;27.50;;;10.80;99.90;;;;;;5035506;28;20569;-51
2023/05/02 00:50:11;;;;;;;54.23;26.80;;;10.80;99.90;;;;;;5035772;28;20249;-50
2023/05/02 00:52:37;;;;;;;53.80;27.90;;;10.80;1.00;;;;;;5034260;28;20186;-48
2023/05/02 00:55:03;;;;;;;52.33;28.70;;;10.80;99.90;;;;;;5035483;28;20181;-48
2023/05/02 00:57:29;;;;;;;55.23;27.40;;;10.80;99.90;;;;;;5035844;28;20505;-48
2023/05/02 00:59:55;;;;;;;48.07;26.87;;;10.70;1.00;;;;;;5035659;28;20414;-48
2023/05/02 01:02:42;;;;;;;51.87;28.77;;;10.80;1.00;;;;;;5035484;28;20477;-49
2023/05/02 01:05:16;;;;;;;56.23;28.17;;;10.80;1.00;;;;;;5035920;28;20409;-48
2023/05/02 01:07:49;;;;;;;54.50;28.73;;;10.80;1.00;;;;;;5035174;28;20852;-48
2023/05/02 01:10:51;;;;;;;51.27;27.60;;;10.80;1.00;;;;;;5035405;28;20854;-48
2023/05/02 01:13:24;;;;;;;50.60;27.17;;;10.80;1.00;;;;;;5035650;28;20512;-49
2023/05/02 01:15:52;;;;;;;52.13;27.55;;;10.90;1.00;;;;;;5034974;28;20417;-48
2023/05/02 01:18:21;;;;;;;54.93;28.50;;;10.80;1.00;;;;;;5035058;28;20706;-48
2023/05/02 01:20:54;;;;;;;56.20;27.40;;;10.80;93.40;;;;;;5035190;28;20424;-48
2023/05/02 01:23:31;;;;;;;48.00;28.37;;;10.70;99.90;;;;;;5035431;28;20403;-48
2023/05/02 01:26:20;;;;;;;50.73;26.83;;;10.70;99.90;;;;;;5034956;28;20496;-49
2023/05/02 01:29:00;;;;;;;48.23;26.60;;;10.70;1.00;;;;;;5035115;28;20418;-50
2023/05/02 01:31:30;;;;;;;44.73;23.30;;;10.70;1.00;;;;;;5034841;28;20914;-48
2023/05/02 01:33:56;;;;;;;44.80;23.43;;;10.70;99.90;;;;;;5034902;28;20777;-48
2023/05/02 01:36:26;;;;;;;36.17;20.10;;;10.80;1.00;;;;;;5034508;28;20406;-48
2023/05/02 01:38:53;;;;;;;37.53;19.07;;;10.70;99.90;;;;;;5035023;28;20792;-49
2023/05/02 01:41:19;;;;;;;37.50;18.30;;;10.60;1.00;;;;;;5034512;28;20426;-48
2023/05/02 01:43:47;;;;;;;34.37;17.37;;;10.60;1.00;;;;;;5034831;28;20419;-48
2023/05/02 01:46:13;;;;;;;40.87;16.73;;;10.60;99.90;;;;;;5034676;28;20488;-48
2023/05/02 01:48:43;;;;;;;31.53;16.00;;;10.50;99.90;;;;;;5034199;28;20518;-48
2023/05/02 01:51:10;;;;;;;30.97;14.90;;;10.40;1.00;;;;;;5034659;28;20454;-48
2023/05/02 01:53:38;;;;;;;27.10;15.37;;;10.40;5.20;;;;;;5034247;28;20992;-48
2023/05/02 01:56:05;;;;;;;34.23;16.30;;;10.40;97.20;;;;;;5034331;28;20975;-48
2023/05/02 01:58:32;;;;;;;32.90;15.70;;;10.30;99.90;;;;;;5034488;28;20468;-48
2023/05/02 02:01:00;;;;;;;30.00;15.20;;;10.30;99.90;;;;;;5034511;28;20433;-48
2023/05/02 02:03:28;;;;;;;31.17;14.07;;;10.30;99.90;;;;;;5034131;28;20418;-48
2023/05/02 02:05:55;;;;;;;35.27;16.27;;;10.30;99.90;;;;;;5034058;28;20415;-49
2023/05/02 02:08:21;;;;;;;36.87;15.50;;;10.20;99.90;;;;;;5034193;28;20418;-48
2023/05/02 02:10:53;;;;;;;30.10;14.10;;;10.20;99.90;;;;;;5033946;28;20466;-48
2023/05/02 02:13:36;;;;;;;30.87;13.70;;;10.30;99.90;;;;;;5033987;28;20203;-48
2023/05/02 02:16:04;;;;;;;30.33;14.23;;;10.40;99.90;;;;;;5034000;28;20964;-48
2023/05/02 02:18:36;;;;;;;24.47;12.80;;;10.40;99.90;;;;;;5033698;28;20434;-48
2023/05/02 02:21:05;;;;;;;20.60;10.80;;;10.30;99.90;;;;;;5032994;28;20409;-48
2023/05/02 02:23:33;;;;;;;18.07;10.40;;;10.30;99.90;;;;;;5033653;28;20418;-49
2023/05/02 02:26:01;;;;;;;15.73;8.13;;;10.40;99.90;;;;;;5033846;28;20429;-48
2023/05/02 02:28:27;;;;;;;13.37;7.80;;;10.40;99.90;;;;;;5034156;28;20509;-48
2023/05/02 02:30:52;;;;;;;10.47;7.00;;;10.40;99.90;;;;;;5033769;28;20623;-48
2023/05/02 02:33:19;;;;;;;13.17;7.47;;;10.40;99.90;;;;;;5033965;28;20195;-48
2023/05/02 02:36:04;;;;;;;11.10;7.77;;;10.40;99.90;;;;;;5033623;28;20172;-49
2023/05/02 02:38:56;;;;;;;13.67;7.67;;;10.30;99.90;;;;;;5066007;28;20402;-48
2023/05/02 02:41:26;;;;;;;13.47;8.60;;;10.30;99.90;;;;;;5033815;28;20414;-48
2023/05/02 02:43:57;;;;;;;18.87;11.03;;;10.30;99.90;;;;;;5033623;28;20407;-49
2023/05/02 02:46:42;;;;;;;21.80;11.57;;;10.10;99.90;;;;;;5033443;28;20522;-48
2023/05/02 02:49:17;;;;;;;17.50;10.20;;;10.10;99.90;;;;;;5033739;28;20480;-48
2023/05/02 02:51:46;;;;;;;19.70;9.00;;;9.90;99.90;;;;;;5033471;28;20461;-48
2023/05/02 02:54:24;;;;;;;13.40;7.63;;;9.80;99.90;;;;;;5033778;28;20415;-48
2023/05/02 02:57:05;;;;;;;15.30;8.53;;;9.70;99.90;;;;;;5033498;28;20452;-48
2023/05/02 02:59:37;;;;;;;16.53;7.00;;;9.60;99.90;;;;;;5033860;28;20412;-49
2023/05/02 03:02:07;;;;;;;18.90;7.00;;;9.60;99.90;;;;;;5033339;28;20469;-48
2023/05/02 03:04:36;;;;;;;20.97;6.40;;;9.50;99.90;;;;;;5033792;28;20433;-49
2023/05/02 03:07:02;;;;;;;15.93;5.70;;;9.40;1.00;;;;;;5033607;28;20423;-49
2023/05/02 03:09:32;;;;;;;16.93;5.70;;;9.20;1.00;;;;;;5033642;28;20568;-48
2023/05/02 03:11:57;;;;;;;20.13;5.60;;;9.10;1.00;;;;;;5033036;28;20411;-48
2023/05/02 03:14:23;;;;;;;24.93;5.83;;;9.00;1.00;;;;;;5033127;28;20510;-49
2023/05/02 03:16:49;;;;;;;20.63;5.87;;;8.90;99.90;;;;;;5033714;28;20187;-49
2023/05/02 03:19:15;;;;;;;17.63;4.97;;;8.80;99.90;;;;;;5032956;28;20187;-49
2023/05/02 03:21:41;;;;;;;17.00;4.60;;;8.80;1.00;;;;;;5033069;28;20497;-49
2023/05/02 03:24:07;;;;;;;13.10;4.90;;;8.80;99.90;;;;;;5033410;28;20206;-49
2023/05/02 03:26:32;;;;;;;13.70;5.10;;;8.70;99.90;;;;;;5033380;28;20415;-49
2023/05/02 03:28:58;;;;;;;18.70;5.47;;;8.80;99.90;;;;;;5033074;28;20180;-49
2023/05/02 03:31:24;;;;;;;19.90;5.70;;;8.70;1.00;;;;;;5034365;28;20569;-49
2023/05/02 03:33:50;;;;;;;14.40;5.23;;;8.60;1.00;;;;;;5037054;28;20188;-49
2023/05/02 03:36:15;;;;;;;16.63;5.93;;;8.60;1.00;;;;;;5036966;28;20197;-49
2023/05/02 03:38:41;;;;;;;23.70;6.30;;;8.60;1.00;;;;;;5037114;28;20455;-49
2023/05/02 03:41:07;;;;;;;24.30;6.40;;;8.50;1.00;;;;;;5036851;28;20198;-49
2023/05/02 03:43:32;;;;;;;17.37;5.77;;;8.50;99.90;;;;;;5037279;28;20186;-50
2023/05/02 03:46:08;;;;;;;26.60;6.37;;;8.40;99.90;;;;;;5036434;28;20188;-49
2023/05/02 03:48:33;;;;;;;13.70;5.50;;;8.30;31.50;;;;;;5036750;28;20242;-49
2023/05/02 03:51:01;;;;;;;19.93;6.50;;;8.30;1.00;;;;;;5036890;28;20474;-49
2023/05/02 03:53:26;;;;;;;24.40;6.67;;;8.30;1.00;;;;;;5036605;28;20414;-49
2023/05/02 03:55:52;;;;;;;21.27;5.57;;;8.20;38.70;;;;;;5036577;28;20467;-49
2023/05/02 03:58:18;;;;;;;23.17;6.07;;;8.10;1.00;;;;;;5036641;28;20266;-49
2023/05/02 04:00:43;;;;;;;20.03;5.70;;;8.10;21.50;;;;;;5036855;28;20190;-49
2023/05/02 04:03:10;;;;;;;32.23;6.23;;;8.00;1.00;;;;;;5036574;28;20183;-49
2023/05/02 04:05:35;;;;;;;27.90;5.57;;;7.90;1.00;;;;;;5036330;28;20241;-49
2023/05/02 04:08:01;;;;;;;21.10;6.00;;;7.90;1.00;;;;;;5036596;28;20412;-49
2023/05/02 04:10:27;;;;;;;24.63;6.00;;;7.90;99.90;;;;;;5036431;28;20219;-49
2023/05/02 04:12:53;;;;;;;17.97;6.30;;;7.90;99.90;;;;;;5036350;28;20464;-49
2023/05/02 04:15:18;;;;;;;30.83;6.43;;;7.90;99.90;;;;;;5036205;28;20713;-49
2023/05/02 04:17:45;;;;;;;23.37;5.67;;;7.90;99.90;;;;;;5036104;28;20175;-49
2023/05/02 04:20:11;;;;;;;15.33;4.90;;;7.80;99.90;;;;;;5036336;28;20241;-49
2023/05/02 04:22:38;;;;;;;17.80;4.90;;;7.90;98.60;;;;;;5036439;28;20423;-49
2023/05/02 04:25:07;;;;;;;25.13;6.73;;;7.90;55.10;;;;;;5035902;28;20599;-49
2023/05/02 04:27:32;;;;;;;17.53;5.37;;;7.80;28.40;;;;;;5035943;28;20411;-49
2023/05/02 04:29:58;;;;;;;16.53;4.90;;;7.80;17.80;;;;;;5035952;28;21035;-50
2023/05/02 04:32:24;;;;;;;18.93;4.40;;;7.90;1.00;;;;;;5035967;28;20210;-49
2023/05/02 04:34:50;;;;;;;14.27;5.10;;;7.90;1.00;;;;;;5035928;28;20194;-49
2023/05/02 04:37:15;;;;;;;17.27;4.60;;;7.80;1.00;;;;;;5035580;28;20243;-49
2023/05/02 04:39:41;;;;;;;27.23;5.70;;;7.90;1.00;;;;;;5036152;28;20418;-49
2023/05/02 04:42:06;;;;;;;19.90;5.30;;;7.90;1.00;;;;;;5036070;28;20262;-48
2023/05/02 04:44:32;;;;;;;19.17;5.03;;;7.80;1.00;;;;;;5035184;28;20640;-49
2023/05/02 04:46:58;;;;;;;22.33;5.63;;;7.90;1.00;;;;;;5035512;28;20611;-49
2023/05/02 04:49:23;;;;;;;18.97;5.03;;;8.00;1.00;;;;;;5035236;28;20289;-49
2023/05/02 04:51:50;;;;;;;16.17;5.37;;;8.00;1.00;;;;;;5035803;28;20528;-49
2023/05/02 04:54:16;;;;;;;19.60;5.07;;;8.00;1.00;;;;;;5035668;28;20543;-49
2023/05/02 04:56:42;;;;;;;21.33;5.70;;;8.00;1.00;;;;;;5035474;28;20421;-50
2023/05/02 04:59:07;;;;;;;21.60;5.83;;;8.00;1.00;;;;;;5035826;28;20517;-49
2023/05/02 05:01:33;;;;;;;17.43;5.37;;;7.90;1.00;;;;;;5035855;28;20285;-48
2023/05/02 05:03:58;;;;;;;24.07;5.13;;;7.90;1.00;;;;;;5035553;28;20179;-48
2023/05/02 05:06:24;;;;;;;27.07;5.77;;;7.90;1.00;;;;;;5035278;28;20619;-49
2023/05/02 05:08:50;;;;;;;20.53;5.57;;;7.90;1.00;;;;;;5035358;28;20184;-49
2023/05/02 05:11:15;;;;;;;20.50;5.20;;;7.80;1.00;;;;;;5035294;28;20260;-49
2023/05/02 05:13:41;;;;;;;25.57;6.20;;;7.80;1.00;;;;;;5035079;28;20180;-49
2023/05/02 05:16:07;;;;;;;28.03;5.77;;;7.80;1.00;;;;;;5035596;28;20182;-49
2023/05/02 05:18:39;;;;;;;22.73;6.23;;;7.70;1.00;;;;;;5035595;28;20184;-49
2023/05/02 05:21:08;;;;;;;17.30;5.10;;;7.80;1.00;;;;;;5035367;28;20414;-49
2023/05/02 05:23:35;;;;;;;23.60;5.40;;;7.80;1.00;;;;;;5035307;28;20410;-57
2023/05/02 05:26:11;;;;;;;21.03;4.87;;;7.80;1.00;;;;;;5035084;28;20952;-49
2023/05/02 05:28:37;;;;;;;25.17;6.00;;;7.70;1.00;;;;;;5035332;28;20484;-49
2023/05/02 05:31:16;;;;;;;14.83;4.97;;;7.80;1.00;;;;;;5034896;28;20970;-49
2023/05/02 05:33:42;;;;;;;24.03;5.20;;;7.80;1.00;;;;;;5035038;28;20602;-49
2023/05/02 05:36:10;;;;;;;23.93;5.10;;;7.80;1.00;;;;;;5034625;28;20906;-49
2023/05/02 05:38:36;;;;;;;25.73;5.63;;;7.80;1.00;;;;;;5034728;28;20472;-49
2023/05/02 05:41:02;;;;;;;26.73;5.30;;;7.70;1.00;;;;;;5034791;28;20417;-49
2023/05/02 05:43:28;;;;;;;16.63;5.17;;;7.70;1.00;;;;;;5034465;28;20937;-49
2023/05/02 05:45:54;;;;;;;15.97;4.83;;;7.70;1.00;;;;;;5034294;28;20902;-49
2023/05/02 05:48:20;;;;;;;14.40;5.00;;;7.70;1.00;;;;;;5034485;28;20868;-49
2023/05/02 05:50:46;;;;;;;14.20;4.67;;;7.60;1.00;;;;;;5034347;28;20478;-49
2023/05/02 05:53:13;;;;;;;19.07;4.60;;;7.60;1.00;;;;;;5034680;28;20418;-51
2023/05/02 05:55:39;;;;;;;21.27;5.33;;;7.70;1.00;;;;;;5033573;28;20694;-49
2023/05/02 05:58:05;;;;;;;15.87;4.80;;;7.70;1.00;;;;;;5033939;28;20467;-48
2023/05/02 06:00:34;;;;;;;18.73;6.57;;;7.70;1.00;;;;;;5033962;28;20418;-49
2023/05/02 06:02:59;;;;;;;19.97;7.50;;;7.60;1.00;;;;;;5034107;28;20228;-50
2023/05/02 06:05:25;;;;;;;17.63;6.90;;;7.60;1.00;;;;;;5033772;28;20437;-49
2023/05/02 06:07:51;;;;;;;13.13;6.93;;;7.60;1.00;;;;;;5034355;28;20195;-49
2023/05/02 06:10:17;;;;;;;13.30;6.80;;;7.60;1.00;;;;;;5034161;28;20603;-49
2023/05/02 06:12:42;;;;;;;13.47;6.40;;;7.60;1.00;;;;;;5034129;28;20194;-49
2023/05/02 06:15:08;;;;;;;19.07;5.70;;;7.60;1.00;;;;;;5034037;28;20182;-49
2023/05/02 06:17:34;;;;;;;14.90;5.47;;;7.70;1.00;;;;;;5033754;28;20184;-49
2023/05/02 06:19:59;;;;;;;17.70;4.87;;;7.80;1.00;;;;;;5034118;28;20418;-49
2023/05/02 06:22:25;;;;;;;16.57;4.80;;;7.90;1.00;;;;;;5033798;28;20176;-49
2023/05/02 06:24:50;;;;;;;12.97;4.70;;;7.90;1.00;;;;;;5033883;28;20266;-48
2023/05/02 06:27:16;;;;;;;11.60;4.80;;;8.00;1.00;;;;;;5034252;28;20190;-49
2023/05/02 06:29:42;;;;;;;12.47;4.20;;;8.10;1.00;;;;;;5033992;28;20525;-50
2023/05/02 06:32:08;;;;;;;13.10;4.67;;;8.10;1.00;;;;;;5034076;28;20187;-49
2023/05/02 06:34:34;;;;;;;12.70;4.93;;;8.10;1.00;;;;;;5034096;28;20183;-49
2023/05/02 06:37:00;;;;;;;13.23;4.60;;;8.00;1.00;;;;;;5034003;28;20765;-49
2023/05/02 06:39:25;;;;;;;14.73;4.17;;;8.00;1.00;;;;;;5033809;28;20191;-49
2023/05/02 06:41:55;;;;;;;15.80;4.30;;;7.90;1.00;;;;;;5033631;28;20182;-49
2023/05/02 06:44:20;;;;;;;19.43;4.00;;;8.00;1.00;;;;;;5033377;28;20179;-49
2023/05/02 06:46:46;;;;;;;12.83;4.00;;;8.00;1.00;;;;;;5033728;28;20805;-48
2023/05/02 06:49:11;;;;;;;10.97;4.00;;;7.90;1.00;;;;;;5033840;28;20254;-49
2023/05/02 06:51:37;;;;;;;11.30;4.40;;;7.90;1.00;;;;;;5033710;28;20266;-49
2023/05/02 06:54:03;;;;;;;11.57;3.83;;;7.90;1.00;;;;;;5033392;28;20183;-48
2023/05/02 06:56:28;;;;;;;12.73;4.53;;;7.90;1.00;;;;;;5033634;28;20183;-49
2023/05/02 06:58:54;;;;;;;10.50;4.30;;;7.90;1.00;;;;;;5033560;28;20615;-49
2023/05/02 07:01:19;;;;;;;10.33;4.00;;;8.00;1.00;;;;;;5033474;28;20235;-49
2023/05/02 07:03:46;;;;;;;12.63;4.40;;;8.10;1.00;;;;;;5033172;28;20187;-48
2023/05/02 07:06:11;;;;;;;8.40;4.63;;;8.20;1.00;;;;;;5034470;28;20262;-48
2023/05/02 07:08:37;;;;;;;11.70;4.50;;;8.10;1.00;;;;;;5038032;28;20863;-48
2023/05/02 07:11:03;;;;;;;7.80;3.83;;;8.40;1.00;;;;;;5037277;28;20207;-49
2023/05/02 07:13:28;;;;;;;6.70;3.90;;;8.50;1.00;;;;;;5037166;28;20183;-49
2023/05/02 07:15:55;;;;;;;10.67;3.53;;;8.50;1.00;;;;;;5037210;28;20178;-48
2023/05/02 07:18:20;;;;;;;6.83;3.57;;;8.50;1.00;;;;;;5037680;28;20266;-48
2023/05/02 07:20:46;;;;;;;11.60;3.47;;;8.40;1.00;;;;;;5037262;28;20994;-48
2023/05/02 07:23:12;;;;;;;5.00;3.23;;;8.50;1.00;;;;;;5037411;28;20742;-49
2023/05/02 07:25:38;;;;;;;19.33;3.03;;;8.50;1.00;;;;;;5037490;28;20175;-48
2023/05/02 07:28:04;;;;;;;7.77;2.70;;;8.60;1.00;;;;;;5037212;28;20616;-49
2023/05/02 07:30:30;;;;;;;5.37;2.30;;;8.70;1.00;;;;;;5037364;28;20556;-49
2023/05/02 07:32:55;;;;;;;8.93;2.87;;;8.80;1.00;;;;;;5037258;28;20192;-48
2023/05/02 07:35:21;;;;;;;11.40;2.87;;;8.90;1.00;;;;;;5037359;28;20269;-49
2023/05/02 07:37:47;;;;;;;5.40;3.33;;;8.80;1.00;;;;;;5036633;28;20182;-49
2023/05/02 07:40:12;;;;;;;7.93;3.27;;;8.70;1.00;;;;;;5037093;28;20187;-49
2023/05/02 07:42:40;;;;;;;10.23;4.17;;;8.70;1.00;;;;;;5037189;28;20584;-49
2023/05/02 07:45:06;;;;;;;11.07;3.30;;;8.80;1.00;;;;;;5037032;28;20188;-49
2023/05/02 07:47:31;;;;;;;8.20;3.73;;;8.80;1.00;;;;;;5036914;28;20555;-49
2023/05/02 07:49:57;;;;;;;7.00;3.50;;;8.80;1.00;;;;;;5036458;28;21037;-49
2023/05/02 07:52:23;;;;;;;11.63;5.10;;;8.80;1.00;;;;;;5036708;28;20281;-49
2023/05/02 07:54:49;;;;;;;11.40;4.63;;;8.90;1.00;;;;;;5036752;28;20283;-49
2023/05/02 07:57:15;;;;;;;8.17;4.10;;;9.00;1.00;;;;;;5036759;28;20258;-49
2023/05/02 07:59:40;;;;;;;11.63;4.47;;;8.90;1.00;;;;;;5036551;28;20461;-49
2023/05/02 08:02:06;;;;;;;11.70;4.00;;;9.00;1.00;;;;;;5036835;28;20217;-49
2023/05/02 08:04:32;;;;;;;16.70;3.27;;;8.80;1.00;;;;;;5036786;28;20659;-49
2023/05/02 08:06:59;;;;;;;12.70;3.10;;;9.00;1.00;;;;;;5036492;28;20549;-49
2023/05/02 08:09:25;;;;;;;10.63;3.30;;;9.20;1.00;;;;;;5036371;28;20879;-49
2023/05/02 08:11:50;;;;;;;9.63;2.97;;;9.30;1.00;;;;;;5036208;28;20563;-49
2023/05/02 08:14:16;;;;;;;5.73;2.50;;;9.30;1.00;;;;;;5036601;28;20306;-49
2023/05/02 08:16:42;;;;;;;10.27;2.93;;;9.50;1.00;;;;;;5036206;28;20674;-50
2023/05/02 08:19:08;;;;;;;9.07;2.30;;;9.50;1.00;;;;;;5034789;28;20187;-49
2023/05/02 08:21:34;;;;;;;8.63;2.70;;;9.60;1.00;;;;;;5036227;28;20421;-49
2023/05/02 08:24:00;;;;;;;10.17;2.90;;;9.60;1.00;;;;;;5035949;28;20581;-49
2023/05/02 08:26:26;;;;;;;11.13;3.27;;;9.60;1.00;;;;;;5035772;28;20194;-48
2023/05/02 08:28:53;;;;;;;11.10;3.00;;;9.60;1.00;;;;;;5036232;28;20258;-49
2023/05/02 08:31:19;;;;;;;4.47;3.00;;;9.40;1.00;;;;;;5036242;28;20456;-49
2023/05/02 08:33:45;;;;;;;9.87;2.80;;;9.60;1.00;;;;;;5036137;28;20422;-48
2023/05/02 08:36:15;;;;;;;12.80;3.60;;;9.50;1.00;;;;;;5035940;28;20472;-49
2023/05/02 08:38:43;;;;;;;12.03;3.60;;;9.60;1.00;;;;;;5035849;28;20775;-49
2023/05/02 08:41:17;;;;;;;12.73;3.77;;;9.70;1.00;;;;;;5035963;28;20525;-49
2023/05/02 08:43:44;;;;;;;11.63;3.50;;;9.90;1.00;;;;;;5035678;28;20420;-48
2023/05/02 08:46:11;;;;;;;14.17;3.83;;;10.10;1.00;;;;;;5035673;28;20425;-49
2023/05/02 08:48:39;;;;;;;8.30;3.67;;;10.00;1.00;;;;;;5035823;28;20472;-48
2023/05/02 08:51:10;;;;;;;31.60;14.50;;;10.10;1.00;;;;;;5035684;28;20457;-49
2023/05/02 08:53:37;;;;;;;9.80;4.67;;;10.20;1.00;;;;;;5035938;28;20421;-50
2023/05/02 08:56:03;;;;;;;11.63;3.63;;;10.40;1.00;;;;;;5035871;28;20421;-49
2023/05/02 08:58:31;;;;;;;5.23;3.10;;;10.50;1.00;;;;;;5035421;28;20951;-49
2023/05/02 09:01:03;;;;;;;6.03;2.20;;;10.60;1.00;;;;;;5035824;28;20514;-49
2023/05/02 09:03:30;;;;;;;5.47;2.70;;;10.80;1.00;;;;;;5035177;28;20759;-49
2023/05/02 09:06:20;;;;;;;12.63;3.20;;;10.80;1.00;;;;;;5035522;28;20413;-49
2023/05/02 09:08:48;;;;;;;9.57;3.00;;;11.30;1.00;;;;;;5029795;28;20773;-49
2023/05/02 09:11:15;;;;;;;8.93;2.50;;;11.50;1.00;;;;;;5035382;28;20523;-49
2023/05/02 09:13:45;;;;;;;6.67;2.57;;;11.80;1.00;;;;;;5035557;28;20459;-49
2023/05/02 09:16:15;;;;;;;7.30;3.23;;;11.80;1.00;;;;;;5035213;28;20406;-49
2023/05/02 09:18:48;;;;;;;3.83;2.17;;;11.60;1.00;;;;;;5035255;28;20417;-49
2023/05/02 09:21:15;;;;;;;4.53;2.10;;;11.40;1.00;;;;;;5035155;28;20414;-49
2023/05/02 09:23:48;;;;;;;7.73;2.37;;;11.40;1.00;;;;;;5034974;28;20421;-49
2023/05/02 09:26:30;;;;;;;6.03;2.60;;;11.90;1.00;;;;;;5034969;28;20954;-49
2023/05/02 09:28:57;;;;;;;6.00;2.00;;;12.30;1.00;;;;;;5034716;28;20421;-49
2023/05/02 09:31:25;;;;;;;5.70;2.27;;;12.30;1.00;;;;;;5035122;28;20450;-49
2023/05/02 09:33:51;;;;;;;5.30;1.90;;;12.00;1.00;;;;;;5034763;28;20426;-49
2023/05/02 09:36:18;;;;;;;6.27;2.00;;;11.90;1.00;;;;;;5035161;28;20414;-50
2023/05/02 09:38:46;;;;;;;4.43;1.60;;;12.00;1.00;;;;;;5034762;28;20415;-49
2023/05/02 09:41:12;;;;;;;6.70;2.00;;;12.20;1.00;;;;;;5034630;28;20434;-49
2023/05/02 09:43:39;;;;;;;7.60;2.10;;;12.60;1.00;;;;;;5034784;28;20450;-49
2023/05/02 09:46:06;;;;;;;14.87;1.90;;;12.70;1.00;;;;;;5034701;28;20468;-49
2023/05/02 09:48:59;;;;;;;13.90;2.43;;;13.00;1.00;;;;;;5034114;28;20995;-49
2023/05/02 09:51:25;;;;;;;3.50;1.53;;;13.60;1.00;;;;;;5032151;28;20508;-49
2023/05/02 09:53:51;;;;;;;4.47;1.70;;;14.00;1.00;;;;;;5034438;28;20414;-49
2023/05/02 09:56:17;;;;;;;3.53;1.90;;;13.80;1.00;;;;;;5034185;28;20214;-49
2023/05/02 09:58:43;;;;;;;6.60;2.40;;;13.20;1.00;;;;;;5034455;28;20415;-49
2023/05/02 10:01:16;;;;;;;11.30;2.60;;;12.70;1.00;;;;;;5034731;28;20482;-49
2023/05/02 10:03:46;;;;;;;5.73;2.10;;;12.30;1.00;;;;;;5034448;28;20414;-49
2023/05/02 10:06:12;;;;;;;5.90;1.80;;;12.10;1.00;;;;;;5034540;28;20416;-49
2023/05/02 10:08:38;;;;;;;5.80;2.10;;;11.80;1.00;;;;;;5034320;28;20501;-49
2023/05/02 10:11:07;;;;;;;6.13;2.33;;;11.60;1.00;;;;;;5033927;28;20454;-49
2023/05/02 10:13:34;;;;;;;5.93;2.80;;;11.70;1.00;;;;;;5034080;28;20427;-49
2023/05/02 10:16:04;;;;;;;6.63;2.07;;;11.80;1.00;;;;;;5034216;28;20410;-49
2023/05/02 10:18:51;;;;;;;6.90;2.30;;;11.90;1.00;;;;;;5034324;28;20420;-49
2023/05/02 10:21:28;;;;;;;6.20;2.70;;;11.80;1.00;;;;;;5034189;28;20927;-49
2023/05/02 10:23:55;;;;;;;4.53;2.23;;;12.00;1.00;;;;;;5034045;28;20410;-48
2023/05/02 10:26:25;;;;;;;5.47;2.50;;;12.70;1.00;;;;;;5033696;28;20433;-50
2023/05/02 10:28:51;;;;;;;6.63;2.20;;;13.80;1.00;;;;;;5033739;28;20910;-49
2023/05/02 10:31:17;;;;;;;6.17;2.40;;;14.50;1.00;;;;;;5033586;28;20461;-49
2023/05/02 10:33:43;;;;;;;5.50;2.07;;;14.50;1.00;;;;;;5033874;28;20926;-49
2023/05/02 10:36:13;;;;;;;3.50;2.17;;;14.00;1.00;;;;;;5033929;28;20426;-50
2023/05/02 10:38:40;;;;;;;4.03;1.93;;;13.60;1.00;;;;;;5033586;28;20421;-49
2023/05/02 10:41:27;;;;;;;5.43;2.23;;;13.10;1.00;;;;;;5033439;28;20418;-49
2023/05/02 10:43:53;;;;;;;7.33;2.23;;;12.70;1.00;;;;;;5033679;28;20482;-49
2023/05/02 10:46:36;;;;;;;8.47;2.27;;;12.40;1.00;;;;;;5033716;28;20418;-49
2023/05/02 10:49:12;;;;;;;6.90;2.10;;;12.50;1.00;;;;;;5033155;28;20239;-49
2023/05/02 10:51:41;;;;;;;5.20;1.93;;;13.40;1.00;;;;;;5033646;28;20493;-49
2023/05/02 10:54:16;;;;;;;3.90;1.80;;;13.70;1.00;;;;;;5033746;28;20414;-49
2023/05/02 10:57:06;;;;;;;9.00;2.13;;;13.60;1.00;;;;;;5033453;28;20425;-49
2023/05/02 10:59:40;;;;;;;3.10;1.87;;;13.00;1.00;;;;;;5033383;28;20414;-49
2023/05/02 11:02:29;;;;;;;3.77;1.97;;;12.80;1.00;;;;;;5033632;28;20488;-48
2023/05/02 11:05:02;;;;;;;5.60;2.00;;;12.40;1.00;;;;;;5033166;28;20758;-49
2023/05/02 11:07:29;;;;;;;8.57;2.07;;;12.00;1.00;;;;;;5033681;28;20397;-49
2023/05/02 11:10:16;;;;;;;7.33;2.50;;;12.00;1.00;;;;;;5033100;28;20481;-49
2023/05/02 11:12:49;;;;;;;9.03;2.70;;;12.60;1.00;;;;;;5033517;28;20433;-49
2023/05/02 11:15:31;;;;;;;7.07;2.23;;;12.90;1.00;;;;;;5033175;28;20521;-49
2023/05/02 11:18:00;;;;;;;3.50;2.20;;;12.90;1.00;;;;;;5033592;28;20464;-49
2023/05/02 11:20:27;;;;;;;8.80;2.60;;;12.70;1.00;;;;;;5033463;28;20418;-49
2023/05/02 11:22:55;;;;;;;6.70;2.20;;;12.50;1.00;;;;;;5033485;28;20457;-49
2023/05/02 11:25:35;;;;;;;10.67;2.63;;;12.40;1.00;;;;;;5033232;28;20472;-49
2023/05/02 11:28:03;;;;;;;8.13;2.17;;;12.40;1.00;;;;;;5032999;28;20475;-49
2023/05/02 11:30:39;;;;;;;6.53;2.07;;;12.50;1.00;;;;;;5033364;28;20543;-49
2023/05/02 11:33:04;;;;;;;6.13;2.00;;;12.70;1.00;;;;;;5033533;28;20467;-49
2023/05/02 11:35:31;;;;;;;3.57;1.83;;;12.80;1.00;;;;;;5033687;28;20422;-49
2023/05/02 11:38:01;;;;;;;4.30;1.70;;;12.70;1.00;;;;;;5033419;28;20237;-49
2023/05/02 11:40:28;;;;;;;2.50;1.77;;;12.80;1.00;;;;;;5033328;28;20418;-49
2023/05/02 11:42:55;;;;;;;4.10;1.67;;;12.90;1.00;;;;;;5033006;28;20752;-51
2023/05/02 11:45:22;;;;;;;3.87;1.60;;;13.10;1.00;;;;;;5032797;28;20425;-49
2023/05/02 11:47:49;;;;;;;4.53;1.47;;;13.20;1.00;;;;;;5032566;28;20519;-48
2023/05/02 11:50:16;;;;;;;3.13;1.97;;;13.40;1.00;;;;;;5033190;28;20527;-48
2023/05/02 11:52:43;;;;;;;2.97;1.60;;;14.10;1.00;;;;;;5034494;28;20430;-49
2023/05/02 11:55:13;;;;;;;3.97;1.30;;;14.50;1.00;;;;;;5036945;28;20418;-49
2023/05/02 11:57:39;;;;;;;4.10;2.00;;;14.50;1.00;;;;;;5036722;28;20433;-49
2023/05/02 12:00:06;;;;;;;5.70;1.80;;;14.50;1.00;;;;;;5036389;28;20422;-49
2023/05/02 12:02:40;;;;;;;3.50;1.40;;;14.80;1.00;;;;;;5036191;28;20493;-49
2023/05/02 12:05:10;;;;;;;1.53;1.40;;;14.60;1.00;;;;;;5036136;28;21051;-50
2023/05/02 12:07:44;;;;;;;3.90;1.90;;;14.20;1.00;;;;;;5036618;28;20411;-49
2023/05/02 12:10:11;;;;;;;4.50;1.97;;;13.50;1.00;;;;;;5036436;28;20457;-48
2023/05/02 12:12:38;;;;;;;3.97;2.60;;;13.00;1.00;;;;;;5036325;28;20974;-49
2023/05/02 12:15:09;;;;;;;6.60;2.60;;;12.70;1.00;;;;;;5036698;28;20413;-49
2023/05/02 12:17:40;;;;;;;5.87;1.97;;;12.40;1.00;;;;;;5036364;28;20418;-49
2023/05/02 12:20:07;;;;;;;4.50;2.27;;;12.50;1.00;;;;;;5035973;28;20422;-49
2023/05/02 12:22:33;;;;;;;5.03;1.63;;;13.40;1.00;;;;;;5036578;28;20417;-49
2023/05/02 12:24:59;;;;;;;9.03;2.13;;;14.60;1.00;;;;;;5036552;28;20416;-49
2023/05/02 12:27:26;;;;;;;5.30;2.13;;;14.90;1.00;;;;;;5036341;28;20783;-50
2023/05/02 12:29:52;;;;;;;6.23;1.87;;;14.30;1.00;;;;;;5035958;28;20217;-49
2023/05/02 12:32:29;;;;;;;6.80;1.73;;;13.40;1.00;;;;;;5035892;28;20417;-49
2023/05/02 12:34:56;;;;;;;5.00;2.23;;;12.90;1.00;;;;;;5036146;28;20421;-49
2023/05/02 12:37:25;;;;;;;3.07;2.10;;;12.50;1.00;;;;;;5035687;28;20918;-49
2023/05/02 12:39:52;;;;;;;5.47;2.20;;;12.10;1.00;;;;;;5036171;28;20426;-49
2023/05/02 12:42:20;;;;;;;6.13;2.40;;;12.20;1.00;;;;;;5036142;28;20420;-49
2023/05/02 12:44:48;;;;;;;2.73;1.90;;;12.40;1.00;;;;;;5035932;28;20423;-49
2023/05/02 12:47:15;;;;;;;6.63;2.37;;;12.70;1.00;;;;;;5035725;28;20421;-49
2023/05/02 12:49:55;;;;;;;3.97;1.70;;;13.80;1.00;;;;;;5035432;28;20950;-49
2023/05/02 12:52:46;;;;;;;5.93;2.30;;;14.30;1.00;;;;;;5036141;28;20414;-49
2023/05/02 12:55:23;;;;;;;3.07;1.87;;;14.10;1.00;;;;;;5035573;28;20419;-49
2023/05/02 12:57:49;;;;;;;2.87;1.67;;;13.90;1.00;;;;;;5036047;28;20402;-49